Time;durP1;ratioP1;P1;durP2;ratioP2;P2;SDS_P1;SDS_P2;PMS_P1;PMS_P2;Temp;Humidity;BMP_temperature;BMP_pressure;BME280_temperature;BME280_humidity;BME280_pressure;Samples;Min_cycle;Max_cycle;Signal;HPM_P1;HPM_P2
2023/05/17 00:03:55;;;;;;;29.10;23.30;;;;;;;10.64;81.25;100321.34;127493;1306;128564;-75
2023/05/17 00:12:02;;;;;;;28.60;21.50;;;;;;;10.59;81.17;100326.60;122409;1298;5408050;-73
2023/05/17 00:16:02;;;;;;;25.80;20.80;;;;;;;10.57;81.35;100330.25;124960;1322;115067;-73
2023/05/17 00:24:32;;;;;;;30.20;22.00;;;;;;;10.60;81.62;100331.54;126051;1299;636567;-76
2023/05/17 00:28:34;;;;;;;29.00;21.30;;;;;;;10.58;81.72;100335.77;128941;1295;128844;-70
2023/05/17 00:32:29;;;;;;;;;;;;;;;;;;;;;
2023/05/17 00:36:32;;;;;;;29.30;20.40;;;;;;;10.56;82.05;100328.02;122752;1290;5442309;-74
2023/05/17 00:40:34;;;;;;;24.10;18.90;;;;;;;10.56;82.07;100325.88;125360;1310;114897;-72
2023/05/17 00:49:01;;;;;;;23.70;19.20;;;;;;;10.58;82.19;100326.84;125962;1299;635781;-75
2023/05/17 00:53:03;;;;;;;21.40;17.80;;;;;;;10.56;82.06;100328.02;127399;1290;128846;-74
2023/05/17 01:05:34;;;;;;;;;;;;;;;;;;;;;
2023/05/17 01:17:57;;;;;;;21.80;16.00;;;;;;;10.50;82.25;100322.77;128726;1278;129086;-75
2023/05/17 01:21:58;;;;;;;18.70;16.20;;;;;;;10.49;82.35;100319.73;128150;1301;114890;-76
2023/05/17 01:26:00;;;;;;;;;;;;;;;;;;;;;
2023/05/17 01:30:03;;;;;;;23.10;16.80;;;;;;;10.43;82.39;100324.11;127542;1290;114869;-75
2023/05/17 01:33:57;;;;;;;;;;;;;;;;;;;;;
2023/05/17 01:42:14;;;;;;;;;;;;;;;;;;;;;
2023/05/17 01:46:23;;;;;;;19.60;15.50;;;;;;;10.37;82.49;100330.85;124591;1313;114974;-77
2023/05/17 01:50:35;;;;;;;21.40;15.10;;;;;;;10.35;82.66;100339.13;124665;1314;114923;-74
2023/05/17 01:54:31;;;;;;;24.00;15.20;;;;;;;10.34;82.66;100339.37;124353;1310;115119;-76
2023/05/17 01:58:32;;;;;;;22.50;15.60;;;;;;;10.31;82.54;100336.81;124458;1331;114989;-77
2023/05/17 02:06:38;;;;;;;22.60;14.90;;;;;;;10.31;83.09;100335.61;124229;1332;114852;-74
2023/05/17 02:10:42;;;;;;;22.80;14.60;;;;;;;10.29;82.92;100340.13;124525;1304;114822;-77
2023/05/17 02:14:43;;;;;;;24.20;14.90;;;;;;;10.27;82.69;100345.59;124988;1314;114964;-76
2023/05/17 02:31:18;;;;;;;19.10;12.70;;;;;;;10.25;82.84;100352.13;127819;1283;128527;-76
2023/05/17 02:35:22;;;;;;;17.60;11.30;;;;;;;10.23;82.87;100353.66;127023;1308;115282;-76
2023/05/17 02:47:58;;;;;;;11.80;9.60;;;;;;;10.13;82.56;100351.45;127544;1286;128919;-76
2023/05/17 03:04:35;;;;;;;17.50;8.70;;;;;;;9.92;82.04;100367.91;126313;1298;640981;-77
2023/05/17 03:08:38;;;;;;;17.40;8.20;;;;;;;9.84;81.85;100376.13;126971;1309;127915;-76
2023/05/17 03:12:39;;;;;;;11.30;8.70;;;;;;;9.78;81.74;100381.21;126091;1301;115272;-76
2023/05/17 03:25:02;;;;;;;13.70;7.90;;;;;;;9.64;81.88;100401.45;126182;1295;637877;-72
2023/05/17 03:33:08;;;;;;;12.20;7.80;;;;;;;9.55;81.76;100409.49;127261;1289;115321;-77
2023/05/17 03:37:11;;;;;;;14.70;8.30;;;;;;;9.53;81.96;100417.09;122617;1292;5438161;-74
2023/05/17 03:41:12;;;;;;;18.80;7.10;;;;;;;9.50;81.96;100421.50;125047;1310;114814;-75
2023/05/17 03:45:06;;;;;;;15.30;7.60;;;;;;;9.47;81.74;100425.20;124273;1315;114944;-77
2023/05/17 04:01:29;;;;;;;10.90;6.00;;;;;;;9.40;81.67;100442.56;127652;1286;115320;-77
2023/05/17 04:05:32;;;;;;;12.20;6.20;;;;;;;9.39;81.53;100443.02;123284;1287;5495321;-77
2023/05/17 04:09:36;;;;;;;11.60;6.00;;;;;;;9.38;81.60;100444.46;126167;1315;116485;-76
2023/05/17 04:13:19;;;;;;;12.60;6.40;;;;;;;9.37;81.02;100445.94;125752;1301;114987;-77
2023/05/17 04:17:22;;;;;;;8.80;5.40;;;;;;;9.42;81.22;100449.65;125131;1307;115343;-75
2023/05/17 04:21:23;;;;;;;11.00;5.90;;;;;;;9.43;81.24;100449.92;125125;1326;127628;-77
2023/05/17 04:25:22;;;;;;;;;;;;;;;;;;;;;
2023/05/17 04:29:20;;;;;;;10.40;5.30;;;;;;;9.49;81.23;100454.31;123809;1330;114895;-77
2023/05/17 04:33:21;;;;;;;13.70;6.30;;;;;;;9.52;80.88;100462.73;123916;1319;115209;-75
2023/05/17 04:45:52;;;;;;;15.80;5.80;;;;;;;9.71;80.73;100483.90;126448;1297;638793;-76
2023/05/17 04:54:32;;;;;;;;;;;;;;;;;;;;;
2023/05/17 04:57:59;;;;;;;8.10;3.70;;;;;;;9.82;80.13;100498.39;121809;1303;5451805;-75
2023/05/17 05:06:34;;;;;;;11.70;4.60;;;;;;;10.01;79.90;100486.73;125807;1303;639154;-76
2023/05/17 05:10:34;;;;;;;;;;;;;;;;;;;;;
2023/05/17 05:14:38;;;;;;;9.40;3.80;;;;;;;10.25;79.80;100484.40;126908;1292;115476;-75
2023/05/17 05:22:42;;;;;;;8.60;4.00;;;;;;;10.56;78.89;100486.59;125589;1304;114962;-74
2023/05/17 05:26:41;;;;;;;;;;;;;;;;;;;;;
2023/05/17 05:30:26;;;;;;;12.70;3.80;;;;;;;10.89;77.82;100493.08;123062;1323;114929;-76
2023/05/17 05:34:31;;;;;;;7.30;3.00;;;;;;;11.09;77.94;100497.83;126241;1291;636463;-75
2023/05/17 05:38:28;;;;;;;6.50;2.80;;;;;;;11.33;76.92;100499.34;128630;1275;128079;-75
2023/05/17 05:42:31;;;;;;;11.00;4.40;;;;;;;11.58;76.46;100501.89;128003;1283;115378;-75
2023/05/17 05:46:24;;;;;;;;;;;;;;;;;;;;;
2023/05/17 05:50:36;;;;;;;11.20;3.30;;;;;;;12.01;75.20;100516.90;122679;1314;114951;-75
2023/05/17 05:54:38;;;;;;;9.60;3.00;;;;;;;12.09;74.78;100522.89;125834;1323;115054;-72
2023/05/17 05:58:37;;;;;;;;;;;;;;;;;;;;;
2023/05/17 06:03:03;;;;;;;11.60;2.70;;;;;;;12.54;73.59;100536.70;125851;1298;636325;-77
2023/05/17 06:07:07;;;;;;;6.70;2.50;;;;;;;12.78;72.66;100541.44;127959;1290;128787;-74
2023/05/17 06:10:44;;;;;;;;;;;;;;;;;;;;;
2023/05/17 06:14:46;;;;;;;;;;;;;;;;;;;;;
2023/05/17 06:18:50;;;;;;;7.70;2.20;;;;;;;13.27;70.94;100553.11;124212;1283;114884;-75
2023/05/17 06:22:51;;;;;;;11.10;2.50;;;;;;;13.32;70.49;100560.36;126872;1291;115165;-73
2023/05/17 06:35:29;;;;;;;8.10;2.80;;;;;;;13.47;69.23;100550.04;127819;1283;128859;-74
2023/05/17 06:39:31;;;;;;;;;;;;;;;;;;;;;
2023/05/17 06:43:49;;;;;;;9.20;3.00;;;;;;;13.49;69.07;100566.23;122394;1296;5432114;-71
2023/05/17 06:47:43;;;;;;;12.00;3.90;;;;;;;13.57;68.29;100572.63;125583;1308;115062;-73
2023/05/17 06:56:17;;;;;;;8.50;3.30;;;;;;;13.76;68.16;100584.58;125733;1302;637227;-73
2023/05/17 07:00:14;;;;;;;12.30;3.70;;;;;;;13.83;67.89;100600.01;127680;1286;127874;-70
2023/05/17 07:04:17;;;;;;;9.60;3.40;;;;;;;13.89;67.56;100598.90;126693;1311;115292;-72
2023/05/17 07:11:52;;;;;;;;;;;;;;;;;;;;;
2023/05/17 07:28:34;;;;;;;13.90;4.70;;;;;;;13.85;65.84;100619.63;126240;1316;115532;-72
2023/05/17 07:32:35;;;;;;;14.60;4.50;;;;;;;13.79;65.47;100620.89;121772;1303;5533062;-75
2023/05/17 07:49:27;;;;;;;11.50;3.40;;;;;;;13.43;65.66;100631.70;127531;1283;116007;-71
2023/05/17 07:53:37;;;;;;;10.90;3.90;;;;;;;13.38;65.20;100636.46;121026;1292;8412189;-72
2023/05/17 08:05:43;;;;;;;9.90;4.00;;;;;;;13.28;64.52;100649.20;125272;1307;114822;-73
2023/05/17 08:09:47;;;;;;;12.40;4.00;;;;;;;13.15;64.61;100649.33;125298;1329;114977;-63
2023/05/17 08:35:45;;;;;;;14.40;4.40;;;;;;;13.25;64.62;100636.26;121694;1308;5434859;-73
2023/05/17 08:44:04;;;;;;;;;;;;;;;;;;;;;
2023/05/17 08:48:16;;;;;;;14.60;5.20;;;;;;;13.13;64.39;100631.89;128223;1280;128944;-75
2023/05/17 08:52:19;;;;;;;9.60;4.00;;;;;;;13.17;64.49;100634.02;128087;1282;115480;-72
2023/05/17 09:04:36;;;;;;;;;;;;;;;;;;;;;
2023/05/17 09:08:42;;;;;;;11.00;4.50;;;;;;;13.59;64.89;100636.21;128018;1278;114924;-72
2023/05/17 09:12:43;;;;;;;14.90;5.00;;;;;;;13.74;64.39;100631.95;125988;1301;129688;-74
2023/05/17 09:16:33;;;;;;;;;;;;;;;;;;;;;
2023/05/17 09:21:02;;;;;;;15.90;5.50;;;;;;;14.11;64.10;100624.42;126261;1293;637290;-73
2023/05/17 09:25:10;;;;;;;13.00;4.70;;;;;;;14.37;64.07;100633.67;129070;1269;128880;-73
2023/05/17 09:28:52;;;;;;;16.70;5.30;;;;;;;14.58;63.78;100638.64;128554;1278;114891;-70
2023/05/17 09:32:34;;;;;;;16.70;5.30;;;;;;;14.81;63.72;100632.64;123985;1279;5407558;-67
2023/05/17 09:36:38;;;;;;;12.70;5.40;;;;;;;15.02;63.09;100629.14;127122;1284;114871;-75
2023/05/17 09:40:42;;;;;;;12.90;5.00;;;;;;;15.14;62.54;100630.90;126535;1308;114856;-71
2023/05/17 09:44:42;;;;;;;9.90;4.70;;;;;;;15.23;62.42;100636.31;125669;1314;114964;-71
2023/05/17 09:48:37;;;;;;;18.30;5.30;;;;;;;15.26;61.60;100638.98;124758;1321;128997;-71
2023/05/17 09:57:04;;;;;;;;;;;;;;;;;;;;;
2023/05/17 10:05:27;;;;;;;12.50;4.70;;;;;;;15.11;60.44;100648.76;126867;1292;115292;-73
2023/05/17 10:09:34;;;;;;;10.80;4.00;;;;;;;15.07;60.29;100649.22;122095;1305;5436607;-71
2023/05/17 10:22:14;;;;;;;14.30;5.10;;;;;;;15.34;60.23;100639.36;125733;1308;638840;-63
2023/05/17 10:26:17;;;;;;;12.80;4.50;;;;;;;15.44;59.98;100640.56;126627;1310;127588;-64
2023/05/17 10:30:01;;;;;;;18.60;5.30;;;;;;;15.61;60.01;100648.10;125958;1295;115333;-63
2023/05/17 10:33:31;;;;;;;15.90;5.30;;;;;;;15.68;59.40;100653.09;120654;1322;5424004;-64
2023/05/17 10:37:16;;;;;;;13.80;5.50;;;;;;;15.65;58.93;100661.71;125385;1308;114811;-65
2023/05/17 10:41:10;;;;;;;13.20;5.80;;;;;;;15.63;58.71;100661.33;124613;1329;114928;-65
2023/05/17 10:45:13;;;;;;;;;;;;;;;;;;;;;
2023/05/17 10:49:35;;;;;;;11.40;4.70;;;;;;;15.57;58.35;100671.63;126254;1304;635862;-65
2023/05/17 10:53:29;;;;;;;10.30;4.00;;;;;;;15.55;58.21;100661.80;127981;1297;128496;-64
2023/05/17 10:57:14;;;;;;;12.70;5.10;;;;;;;15.49;58.43;100664.34;127424;1290;115214;-64
2023/05/17 11:01:45;;;;;;;12.50;3.70;;;;;;;15.49;58.14;100670.27;127589;1295;114940;-63
2023/05/17 11:05:28;;;;;;;9.50;3.90;;;;;;;15.48;57.06;100671.24;124178;1290;114942;-63
2023/05/17 11:14:07;;;;;;;8.90;3.40;;;;;;;15.26;56.96;100673.76;126307;1314;114884;-77
2023/05/17 11:18:07;;;;;;;;;;;;;;;;;;;;;
2023/05/17 11:22:08;;;;;;;;;;;;;;;;;;;;;
2023/05/17 11:26:02;;;;;;;10.30;3.40;;;;;;;14.92;56.39;100670.60;123918;1333;114900;-66
2023/05/17 11:30:01;;;;;;;;;;;;;;;;;;;;;
2023/05/17 11:34:45;;;;;;;7.90;3.60;;;;;;;14.86;56.63;100674.21;125827;1297;637741;-76
2023/05/17 11:38:54;;;;;;;13.30;3.70;;;;;;;14.82;56.58;100669.79;128560;1274;130332;-70
2023/05/17 11:42:56;;;;;;;8.40;3.50;;;;;;;14.88;56.99;100664.36;128654;1283;116626;-75
2023/05/17 11:46:53;;;;;;;9.30;3.40;;;;;;;14.88;56.68;100659.38;124138;1284;5513034;-72
2023/05/17 11:50:58;;;;;;;6.10;2.70;;;;;;;14.80;56.16;100658.41;127122;1288;114897;-70
2023/05/17 11:54:59;;;;;;;5.60;2.60;;;;;;;14.78;56.40;100660.13;125703;1321;114862;-74
2023/05/17 11:59:14;;;;;;;7.20;2.80;;;;;;;14.75;56.42;100663.40;125102;1309;127861;-72
2023/05/17 12:11:55;;;;;;;6.10;4.00;;;;;;;14.70;57.33;100662.79;128739;1276;127840;-74
2023/05/17 12:15:48;;;;;;;9.50;3.60;;;;;;;14.72;57.40;100663.36;128786;1279;114811;-75
2023/05/17 12:19:33;;;;;;;9.70;2.90;;;;;;;14.78;57.72;100659.59;124174;1274;5453349;-77
2023/05/17 12:27:40;;;;;;;9.80;3.60;;;;;;;14.79;57.34;100672.66;128012;1278;115064;-72
2023/05/17 12:31:42;;;;;;;6.30;2.90;;;;;;;14.69;56.86;100673.46;126586;1295;116271;-77
2023/05/17 12:35:22;;;;;;;7.10;3.10;;;;;;;14.55;57.53;100674.81;126157;1298;129815;-76
2023/05/17 12:39:16;;;;;;;7.20;3.30;;;;;;;14.53;57.51;100684.64;125954;1303;115281;-77
2023/05/17 12:43:18;;;;;;;10.10;3.90;;;;;;;14.50;57.70;100677.63;126145;1302;114952;-78
2023/05/17 12:47:18;;;;;;;7.50;3.50;;;;;;;14.47;57.76;100682.84;126138;1302;115101;-77
2023/05/17 12:51:25;;;;;;;9.10;3.50;;;;;;;14.48;57.82;100689.81;125952;1310;114890;-74
2023/05/17 12:55:27;;;;;;;7.50;3.20;;;;;;;14.38;57.90;100693.61;125668;1299;127981;-74
2023/05/17 13:03:51;;;;;;;8.50;3.20;;;;;;;14.18;58.24;100690.30;125944;1306;635399;-74
2023/05/17 13:07:54;;;;;;;11.10;3.00;;;;;;;14.11;58.17;100691.02;128173;1275;127870;-78
2023/05/17 13:12:06;;;;;;;8.20;3.30;;;;;;;14.14;58.46;100691.43;127816;1284;115437;-74
2023/05/17 13:16:03;;;;;;;;;;;;;;;;;;;;;
2023/05/17 13:20:15;;;;;;;8.50;2.80;;;;;;;14.21;58.12;100697.81;126360;1295;114936;-77
2023/05/17 13:28:36;;;;;;;13.30;4.30;;;;;;;14.20;58.10;100709.95;125236;1325;114899;-78
2023/05/17 13:32:37;;;;;;;10.80;3.80;;;;;;;14.17;57.73;100718.54;124437;1316;127963;-78
2023/05/17 13:40:57;;;;;;;10.00;4.40;;;;;;;14.06;57.89;100731.56;125322;1304;636473;-76
2023/05/17 13:57:07;;;;;;;7.60;3.60;;;;;;;13.93;58.30;100744.49;126233;1298;114853;-78
2023/05/17 14:05:10;;;;;;;13.30;4.30;;;;;;;14.11;58.38;100760.02;124085;1312;127989;-78
2023/05/17 14:13:25;;;;;;;12.60;3.40;;;;;;;14.19;57.60;100761.52;126302;1296;636301;-78
2023/05/17 14:17:37;;;;;;;;;;;;;;;;;;;;;
2023/05/17 14:25:42;;;;;;;9.40;3.50;;;;;;;14.41;57.41;100778.59;122677;1294;5491076;-77
2023/05/17 14:29:46;;;;;;;7.40;3.40;;;;;;;14.41;57.45;100777.36;126263;1300;114893;-76
2023/05/17 14:33:31;;;;;;;9.20;3.70;;;;;;;14.42;57.09;100782.30;125571;1309;114781;-74
2023/05/17 14:37:20;;;;;;;;;;;;;;;;;;;;;
2023/05/17 14:41:10;;;;;;;10.20;5.00;;;;;;;14.37;57.06;100787.48;125162;1311;115291;-77
2023/05/17 14:45:02;;;;;;;12.40;4.70;;;;;;;14.36;57.10;100787.89;124962;1307;114968;-77
2023/05/17 14:57:51;;;;;;;11.20;4.10;;;;;;;14.52;57.68;100786.23;129276;1280;128832;-76
2023/05/17 15:05:53;;;;;;;9.50;3.70;;;;;;;14.56;57.01;100786.73;124043;1284;5452593;-75
2023/05/17 15:09:42;;;;;;;;;;;;;;;;;;;;;
2023/05/17 15:13:36;;;;;;;10.10;3.90;;;;;;;14.42;56.67;100797.19;126229;1293;114973;-76
2023/05/17 15:17:38;;;;;;;10.90;5.00;;;;;;;14.45;56.58;100797.09;125479;1305;114983;-75
2023/05/17 15:21:32;;;;;;;14.40;5.90;;;;;;;14.43;56.47;100804.71;124866;1310;130784;-77
2023/05/17 15:29:57;;;;;;;12.20;4.50;;;;;;;14.40;56.74;100809.73;126446;1305;636304;-74
2023/05/17 15:33:42;;;;;;;12.00;3.90;;;;;;;14.35;56.32;100817.56;126987;1293;128612;-76
2023/05/17 15:37:42;;;;;;;9.80;3.80;;;;;;;14.25;56.37;100816.34;127690;1287;114776;-74
2023/05/17 15:41:51;;;;;;;;;;;;;;;;;;;;;
2023/05/17 15:45:37;;;;;;;11.60;4.20;;;;;;;14.20;56.45;100822.38;126033;1310;114939;-66
2023/05/17 15:49:39;;;;;;;13.70;6.90;;;;;;;14.15;56.18;100820.15;125940;1297;114793;-71
2023/05/17 15:53:39;;;;;;;15.00;6.70;;;;;;;14.09;56.51;100817.75;125701;1310;114979;-66
2023/05/17 16:01:47;;;;;;;;;;;;;;;;;;;;;
2023/05/17 16:04:55;;;;;;;;;;;;;;;13.82;55.94;100827.52;127930;1283;128062;-71
2023/05/17 16:08:02;;;;;;;10.30;4.80;;;;;;;13.75;56.23;100835.06;128052;1278;115273;-75
2023/05/17 16:11:49;;;;;;;13.00;6.00;;;;;;;13.71;56.29;100831.36;127837;1283;114724;-80
2023/05/17 16:15:22;;;;;;;;;;;;;;;;;;;;;
2023/05/17 16:19:02;;;;;;;17.10;9.10;;;;;;;13.54;56.13;100831.55;127932;1278;116538;-73
2023/05/17 16:27:42;;;;;;;16.60;6.20;;;;;;;13.38;56.38;100846.89;126445;1291;635231;-78
2023/05/17 16:31:19;;;;;;;15.70;5.10;;;;;;;13.27;56.55;100853.90;128888;1266;128183;-70
2023/05/17 16:35:45;;;;;;;14.00;5.50;;;;;;;13.20;56.55;100860.38;128164;1299;115363;-79
2023/05/17 16:39:27;;;;;;;;;;;;;;;;;;;;;
2023/05/17 16:43:16;;;;;;;;;;;;;;;;;;;;;
2023/05/17 16:47:14;;;;;;;11.20;4.20;;;;;;;13.06;57.08;100870.24;126939;1289;114858;-79
2023/05/17 16:51:16;;;;;;;13.60;5.20;;;;;;;13.01;57.44;100872.77;125997;1298;114840;-77
2023/05/17 16:55:11;;;;;;;10.70;4.20;;;;;;;12.97;57.26;100876.77;125918;1301;128415;-77
2023/05/17 16:59:12;;;;;;;9.40;4.90;;;;;;;12.91;57.61;100883.48;125088;1310;115473;-76
2023/05/17 17:07:38;;;;;;;12.10;5.20;;;;;;;12.87;57.80;100882.99;126036;1297;638517;-68
2023/05/17 17:11:30;;;;;;;12.60;5.80;;;;;;;12.83;57.71;100884.12;128486;1278;127582;-77
2023/05/17 17:15:22;;;;;;;14.70;5.90;;;;;;;12.79;57.81;100881.08;128721;1276;115198;-75
2023/05/17 17:19:07;;;;;;;12.60;5.80;;;;;;;12.72;57.84;100878.02;127013;1290;5478409;-68
2023/05/17 17:23:08;;;;;;;16.20;5.10;;;;;;;12.66;57.77;100881.55;128867;1293;115002;-77
2023/05/17 17:31:15;;;;;;;12.40;4.70;;;;;;;12.55;58.19;100882.96;127366;1304;126852;-77
2023/05/17 17:35:04;;;;;;;11.50;4.80;;;;;;;12.50;58.19;100878.17;126405;1298;114847;-79
2023/05/17 17:39:06;;;;;;;12.40;4.30;;;;;;;12.47;58.29;100882.08;125549;1301;115247;-77
2023/05/17 17:47:12;;;;;;;;;;;;;;;;;;;;;
2023/05/17 17:51:17;;;;;;;12.80;4.70;;;;;;;12.39;58.61;100892.30;128287;1284;128893;-78
2023/05/17 17:55:09;;;;;;;18.80;7.00;;;;;;;12.36;58.58;100899.81;126901;1293;114909;-77
2023/05/17 18:03:12;;;;;;;;;;;;;;;;;;;;;
2023/05/17 18:07:15;;;;;;;14.20;5.20;;;;;;;12.17;59.08;100918.79;125314;1323;114987;-78
2023/05/17 18:10:47;;;;;;;;;;;;;;;;;;;;;
2023/05/17 18:15:00;;;;;;;13.90;6.10;;;;;;;12.00;59.59;100918.10;126365;1302;635234;-78
2023/05/17 18:19:03;;;;;;;12.80;5.90;;;;;;;11.89;60.17;100921.10;128733;1270;126535;-78
2023/05/17 18:22:15;;;;;;;19.50;6.60;;;;;;;11.78;60.32;100928.71;128202;1300;116449;-75
2023/05/17 18:26:07;;;;;;;;;;;;;;;;;;;;;
2023/05/17 18:30:11;;;;;;;19.60;7.20;;;;;;;11.58;61.23;100934.10;123595;1298;114900;-77
2023/05/17 18:38:08;;;;;;;12.60;6.60;;;;;;;11.35;62.09;100955.28;126152;1298;115057;-79
2023/05/17 18:42:11;;;;;;;15.90;6.80;;;;;;;11.26;62.28;100962.28;126137;1304;128476;-79
2023/05/17 18:46:12;;;;;;;15.30;7.70;;;;;;;11.16;62.94;100970.90;125296;1308;115518;-77
2023/05/17 19:03:14;;;;;;;21.50;10.10;;;;;;;10.74;63.50;100995.06;126522;1304;116439;-69
2023/05/17 19:16:03;;;;;;;20.50;9.40;;;;;;;10.53;64.91;101010.17;129660;1285;128768;-75
2023/05/17 19:20:06;;;;;;;17.80;9.00;;;;;;;10.46;65.15;101009.55;129244;1273;114910;-73
2023/05/17 19:24:08;;;;;;;20.80;7.90;;;;;;;10.38;65.35;101004.64;124552;1279;5434881;-78
2023/05/17 19:28:10;;;;;;;18.30;7.70;;;;;;;10.32;65.59;101009.13;126886;1292;114880;-76
2023/05/17 19:32:09;;;;;;;;;;;;;;;;;;;;;
2023/05/17 19:36:11;;;;;;;16.70;5.90;;;;;;;10.21;66.00;101015.98;125767;1301;114954;-75
2023/05/17 19:44:32;;;;;;;17.80;8.40;;;;;;;10.14;66.64;101014.79;126249;1292;635896;-77
2023/05/17 19:48:34;;;;;;;19.80;7.30;;;;;;;10.08;66.81;101015.17;128319;1275;128110;-77
2023/05/17 19:52:38;;;;;;;;;;;;;;;;;;;;;
2023/05/17 19:56:35;;;;;;;20.90;8.00;;;;;;;9.98;66.86;101009.83;123385;1289;5489547;-74
2023/05/17 20:00:19;;;;;;;17.90;9.50;;;;;;;9.94;66.83;101004.98;126215;1315;114940;-76
2023/05/17 20:04:17;;;;;;;18.90;9.20;;;;;;;9.90;67.00;101004.77;125715;1298;114993;-75
2023/05/17 20:08:06;;;;;;;;;;;;;;;;;;;;;
2023/05/17 20:16:33;;;;;;;;;;;;;;;;;;;;;
2023/05/17 20:20:30;;;;;;;20.70;9.70;;;;;;;9.81;67.68;101010.77;126894;1287;127675;-72
2023/05/17 20:24:33;;;;;;;;;;;;;;;;;;;;;
2023/05/17 20:32:26;;;;;;;23.10;9.00;;;;;;;9.73;67.60;101006.25;125086;1309;117820;-72
2023/05/17 20:40:53;;;;;;;19.90;9.60;;;;;;;9.72;67.86;101017.34;125801;1302;636383;-74
2023/05/17 20:44:56;;;;;;;18.50;9.20;;;;;;;9.67;68.22;101023.57;127837;1281;128291;-70
2023/05/17 20:48:58;;;;;;;;;;;;;;;;;;;;;
2023/05/17 20:57:27;;;;;;;;;;;;;;;;;;;;;
2023/05/17 21:01:17;;;;;;;19.90;10.40;;;;;;;9.58;68.74;101049.73;127008;1293;128062;-70
2023/05/17 21:05:16;;;;;;;24.60;10.40;;;;;;;9.54;68.70;101053.77;127005;1296;115201;-71
2023/05/17 21:09:15;;;;;;;;;;;;;;;;;;;;;
2023/05/17 21:17:44;;;;;;;28.60;11.60;;;;;;;9.49;69.35;101063.23;127484;1306;128540;-73
2023/05/17 21:21:47;;;;;;;31.30;13.70;;;;;;;9.47;69.16;101061.14;126757;1312;114964;-71
2023/05/17 21:25:45;;;;;;;24.90;11.90;;;;;;;9.45;69.35;101065.51;121949;1302;5433258;-69
2023/05/17 21:29:44;;;;;;;28.40;12.60;;;;;;;9.41;69.53;101061.50;125422;1314;114904;-69
2023/05/17 21:33:46;;;;;;;28.10;12.80;;;;;;;9.40;69.59;101065.45;125237;1308;114917;-72
2023/05/17 21:42:14;;;;;;;26.70;11.50;;;;;;;9.35;69.50;101065.27;125686;1302;641386;-70
2023/05/17 21:46:00;;;;;;;26.40;13.10;;;;;;;9.28;69.54;101065.84;127961;1284;128839;-72
2023/05/17 21:50:03;;;;;;;29.50;12.90;;;;;;;9.23;69.46;101068.67;128397;1281;114855;-72
2023/05/17 21:53:56;;;;;;;;;;;;;;;;;;;;;
2023/05/17 22:02:25;;;;;;;25.80;10.20;;;;;;;9.07;69.12;101069.38;126551;1295;638475;-69
2023/05/17 22:06:08;;;;;;;18.00;7.80;;;;;;;8.99;69.27;101072.45;127922;1282;128899;-68
2023/05/17 22:09:55;;;;;;;;;;;;;;;;;;;;;
2023/05/17 22:13:48;;;;;;;21.60;7.50;;;;;;;8.89;69.10;101067.23;126929;1295;114859;-73
2023/05/17 22:17:51;;;;;;;23.20;7.90;;;;;;;8.85;68.81;101069.16;122881;1293;114955;-73
2023/05/17 22:21:45;;;;;;;18.00;6.60;;;;;;;8.80;68.77;101069.29;125506;1308;114980;-74
2023/05/17 22:29:40;;;;;;;;;;;;;;;;;;;;;
2023/05/17 22:33:54;;;;;;;22.20;7.50;;;;;;;8.75;68.95;101064.27;125750;1302;635874;-75
2023/05/17 22:41:52;;;;;;;;;;;;;;;;;;;;;
2023/05/17 22:49:53;;;;;;;18.20;7.20;;;;;;;8.70;69.05;101077.24;126250;1292;114788;-70
2023/05/17 22:53:53;;;;;;;22.90;7.70;;;;;;;8.71;68.96;101093.42;125515;1301;114801;-72
2023/05/17 22:57:54;;;;;;;18.30;7.10;;;;;;;8.71;69.01;101099.30;124881;1312;130447;-71
2023/05/17 23:01:54;;;;;;;17.60;7.20;;;;;;;8.71;69.22;101098.75;124126;1319;115412;-71
2023/05/17 23:14:20;;;;;;;;;;;;;;;;;;;;;
2023/05/17 23:18:38;;;;;;;24.10;8.80;;;;;;;8.65;69.02;101125.64;128024;1282;114843;-68
2023/05/17 23:27:09;;;;;;;;;;;;;;;;;;;;;
2023/05/17 23:35:21;;;;;;;26.80;9.40;;;;;;;8.52;69.35;101125.10;127358;1286;116551;-71
2023/05/17 23:39:22;;;;;;;20.30;9.10;;;;;;;8.47;69.63;101127.00;123303;1290;5468517;-67
2023/05/17 23:43:22;;;;;;;24.60;8.40;;;;;;;8.42;69.55;101124.82;126640;1292;114913;-71
2023/05/17 23:47:23;;;;;;;17.60;8.50;;;;;;;8.37;69.64;101122.80;126630;1290;114842;-71
2023/05/17 23:51:13;;;;;;;22.60;9.10;;;;;;;8.31;69.61;101126.17;126200;1301;114935;-73
2023/05/17 23:55:15;;;;;;;22.00;8.70;;;;;;;8.25;69.67;101134.35;126247;1309;127685;-72
2023/05/17 23:59:08;;;;;;;;;;;;;;;;;;;;;
